sensor_id;sensor_type;location;lat;lon;timestamp;P1;durP1;ratioP1;P2;durP2;ratioP2
27424;SDS011;15244;49.088;11.886;2023-04-29T00:00:47;1.58;;;1.50;;
27424;SDS011;15244;49.088;11.886;2023-04-29T00:06:02;1.20;;;1.20;;
27424;SDS011;15244;49.088;11.886;2023-04-29T00:11:32;2.95;;;1.35;;
27424;SDS011;15244;49.088;11.886;2023-04-29T00:16:48;1.50;;;1.40;;
27424;SDS011;15244;49.088;11.886;2023-04-29T00:22:18;2.10;;;1.20;;
27424;SDS011;15244;49.088;11.886;2023-04-29T00:27:33;1.00;;;1.00;;
27424;SDS011;15244;49.088;11.886;2023-04-29T00:33:02;1.00;;;0.93;;
27424;SDS011;15244;49.088;11.886;2023-04-29T00:38:17;0.85;;;0.85;;
27424;SDS011;15244;49.088;11.886;2023-04-29T00:43:46;1.00;;;0.93;;
27424;SDS011;15244;49.088;11.886;2023-04-29T00:49:01;0.93;;;0.93;;
27424;SDS011;15244;49.088;11.886;2023-04-29T00:54:30;1.70;;;1.23;;
27424;SDS011;15244;49.088;11.886;2023-04-29T00:59:45;1.10;;;1.10;;
27424;SDS011;15244;49.088;11.886;2023-04-29T01:05:14;1.25;;;1.20;;
27424;SDS011;15244;49.088;11.886;2023-04-29T01:10:30;1.25;;;1.25;;
27424;SDS011;15244;49.088;11.886;2023-04-29T01:16:17;2.03;;;1.92;;
27424;SDS011;15244;49.088;11.886;2023-04-29T01:21:44;2.20;;;2.10;;
27424;SDS011;15244;49.088;11.886;2023-04-29T01:33:02;4.80;;;3.20;;
27424;SDS011;15244;49.088;11.886;2023-04-29T01:44:23;2.92;;;2.72;;
27424;SDS011;15244;49.088;11.886;2023-04-29T01:49:59;3.20;;;3.00;;
27424;SDS011;15244;49.088;11.886;2023-04-29T01:55:16;3.45;;;3.15;;
27424;SDS011;15244;49.088;11.886;2023-04-29T02:00:54;2.88;;;2.60;;
27424;SDS011;15244;49.088;11.886;2023-04-29T02:06:09;2.55;;;2.45;;
27424;SDS011;15244;49.088;11.886;2023-04-29T02:11:44;2.50;;;2.30;;
27424;SDS011;15244;49.088;11.886;2023-04-29T02:16:59;2.70;;;2.50;;
27424;SDS011;15244;49.088;11.886;2023-04-29T02:22:30;2.85;;;2.65;;
27424;SDS011;15244;49.088;11.886;2023-04-29T02:27:45;3.33;;;3.10;;
27424;SDS011;15244;49.088;11.886;2023-04-29T02:33:14;3.33;;;3.13;;
27424;SDS011;15244;49.088;11.886;2023-04-29T02:38:31;3.60;;;3.40;;
27424;SDS011;15244;49.088;11.886;2023-04-29T02:44:02;4.35;;;3.28;;
27424;SDS011;15244;49.088;11.886;2023-04-29T02:49:17;3.53;;;3.22;;
27424;SDS011;15244;49.088;11.886;2023-04-29T02:54:46;4.00;;;3.70;;
27424;SDS011;15244;49.088;11.886;2023-04-29T03:00:01;3.78;;;3.58;;
27424;SDS011;15244;49.088;11.886;2023-04-29T03:05:30;4.32;;;4.00;;
27424;SDS011;15244;49.088;11.886;2023-04-29T03:10:45;5.47;;;4.38;;
27424;SDS011;15244;49.088;11.886;2023-04-29T03:16:14;4.68;;;4.32;;
27424;SDS011;15244;49.088;11.886;2023-04-29T03:21:30;4.45;;;4.25;;
27424;SDS011;15244;49.088;11.886;2023-04-29T03:26:59;5.35;;;4.40;;
27424;SDS011;15244;49.088;11.886;2023-04-29T03:32:14;4.30;;;4.03;;
27424;SDS011;15244;49.088;11.886;2023-04-29T03:37:43;4.97;;;4.68;;
27424;SDS011;15244;49.088;11.886;2023-04-29T03:43:03;6.25;;;5.85;;
27424;SDS011;15244;49.088;11.886;2023-04-29T03:48:33;6.85;;;6.32;;
27424;SDS011;15244;49.088;11.886;2023-04-29T03:53:50;7.32;;;6.72;;
27424;SDS011;15244;49.088;11.886;2023-04-29T03:59:21;11.70;;;6.90;;
27424;SDS011;15244;49.088;11.886;2023-04-29T04:04:36;6.70;;;6.20;;
27424;SDS011;15244;49.088;11.886;2023-04-29T04:10:05;6.75;;;6.25;;
27424;SDS011;15244;49.088;11.886;2023-04-29T04:15:20;6.88;;;6.45;;
27424;SDS011;15244;49.088;11.886;2023-04-29T04:20:49;7.90;;;7.05;;
27424;SDS011;15244;49.088;11.886;2023-04-29T04:26:04;6.75;;;6.32;;
27424;SDS011;15244;49.088;11.886;2023-04-29T04:31:51;8.05;;;7.35;;
27424;SDS011;15244;49.088;11.886;2023-04-29T04:37:07;7.45;;;6.93;;
27424;SDS011;15244;49.088;11.886;2023-04-29T04:42:41;7.45;;;6.93;;
27424;SDS011;15244;49.088;11.886;2023-04-29T04:48:03;7.32;;;6.82;;
27424;SDS011;15244;49.088;11.886;2023-04-29T04:53:33;7.10;;;6.47;;
27424;SDS011;15244;49.088;11.886;2023-04-29T04:58:53;7.43;;;6.93;;
27424;SDS011;15244;49.088;11.886;2023-04-29T05:04:23;6.88;;;6.45;;
27424;SDS011;15244;49.088;11.886;2023-04-29T05:09:40;7.20;;;6.70;;
27424;SDS011;15244;49.088;11.886;2023-04-29T05:15:11;7.50;;;7.00;;
27424;SDS011;15244;49.088;11.886;2023-04-29T05:20:31;7.43;;;6.93;;
27424;SDS011;15244;49.088;11.886;2023-04-29T05:26:00;7.00;;;6.40;;
27424;SDS011;15244;49.088;11.886;2023-04-29T05:31:15;7.00;;;6.50;;
27424;SDS011;15244;49.088;11.886;2023-04-29T05:36:47;7.35;;;6.70;;
27424;SDS011;15244;49.088;11.886;2023-04-29T05:42:09;7.50;;;7.00;;
27424;SDS011;15244;49.088;11.886;2023-04-29T05:47:38;7.22;;;6.72;;
27424;SDS011;15244;49.088;11.886;2023-04-29T05:52:53;7.32;;;6.75;;
27424;SDS011;15244;49.088;11.886;2023-04-29T05:58:23;7.25;;;6.75;;
27424;SDS011;15244;49.088;11.886;2023-04-29T06:03:39;7.57;;;6.97;;
27424;SDS011;15244;49.088;11.886;2023-04-29T06:09:20;7.38;;;6.60;;
27424;SDS011;15244;49.088;11.886;2023-04-29T06:14:36;6.60;;;6.00;;
27424;SDS011;15244;49.088;11.886;2023-04-29T06:20:07;6.47;;;6.07;;
27424;SDS011;15244;49.088;11.886;2023-04-29T06:25:26;6.80;;;6.15;;
27424;SDS011;15244;49.088;11.886;2023-04-29T06:30:55;6.72;;;6.22;;
27424;SDS011;15244;49.088;11.886;2023-04-29T06:36:10;6.40;;;5.80;;
27424;SDS011;15244;49.088;11.886;2023-04-29T06:41:52;5.22;;;4.93;;
27424;SDS011;15244;49.088;11.886;2023-04-29T06:47:28;5.18;;;4.88;;
27424;SDS011;15244;49.088;11.886;2023-04-29T06:53:09;5.00;;;4.50;;
27424;SDS011;15244;49.088;11.886;2023-04-29T06:58:24;4.63;;;4.32;;
27424;SDS011;15244;49.088;11.886;2023-04-29T07:03:53;4.22;;;3.97;;
27424;SDS011;15244;49.088;11.886;2023-04-29T07:09:08;3.97;;;3.78;;
27424;SDS011;15244;49.088;11.886;2023-04-29T07:14:37;4.15;;;3.85;;
27424;SDS011;15244;49.088;11.886;2023-04-29T07:32:48;3.53;;;3.33;;
27424;SDS011;15244;49.088;11.886;2023-04-29T07:38:17;4.20;;;4.00;;
27424;SDS011;15244;49.088;11.886;2023-04-29T07:43:32;4.68;;;4.28;;
27424;SDS011;15244;49.088;11.886;2023-04-29T07:49:01;3.70;;;3.50;;
27424;SDS011;15244;49.088;11.886;2023-04-29T07:54:16;3.80;;;3.60;;
27424;SDS011;15244;49.088;11.886;2023-04-29T07:59:45;3.65;;;3.45;;
27424;SDS011;15244;49.088;11.886;2023-04-29T08:05:01;4.20;;;3.95;;
27424;SDS011;15244;49.088;11.886;2023-04-29T08:10:30;3.35;;;3.15;;
27424;SDS011;15244;49.088;11.886;2023-04-29T08:21:51;3.15;;;2.92;;
27424;SDS011;15244;49.088;11.886;2023-04-29T08:27:23;2.53;;;2.38;;
27424;SDS011;15244;49.088;11.886;2023-04-29T08:32:39;4.22;;;3.83;;
27424;SDS011;15244;49.088;11.886;2023-04-29T08:38:09;3.95;;;3.65;;
27424;SDS011;15244;49.088;11.886;2023-04-29T08:43:24;3.75;;;3.55;;
27424;SDS011;15244;49.088;11.886;2023-04-29T08:48:54;3.72;;;3.53;;
27424;SDS011;15244;49.088;11.886;2023-04-29T08:54:11;4.35;;;3.95;;
27424;SDS011;15244;49.088;11.886;2023-04-29T08:59:40;5.35;;;4.90;;
27424;SDS011;15244;49.088;11.886;2023-04-29T09:05:05;4.50;;;4.10;;
27424;SDS011;15244;49.088;11.886;2023-04-29T09:10:41;4.55;;;4.22;;
27424;SDS011;15244;49.088;11.886;2023-04-29T09:15:56;3.95;;;3.70;;
27424;SDS011;15244;49.088;11.886;2023-04-29T09:21:26;3.90;;;3.60;;
27424;SDS011;15244;49.088;11.886;2023-04-29T09:26:42;3.92;;;3.65;;
27424;SDS011;15244;49.088;11.886;2023-04-29T09:32:17;3.85;;;3.58;;
27424;SDS011;15244;49.088;11.886;2023-04-29T09:37:34;3.70;;;3.50;;
27424;SDS011;15244;49.088;11.886;2023-04-29T09:43:03;3.13;;;2.92;;
27424;SDS011;15244;49.088;11.886;2023-04-29T09:48:29;7.18;;;3.95;;
27424;SDS011;15244;49.088;11.886;2023-04-29T09:53:59;4.78;;;4.47;;
27424;SDS011;15244;49.088;11.886;2023-04-29T09:59:16;4.82;;;4.53;;
27424;SDS011;15244;49.088;11.886;2023-04-29T10:04:46;5.35;;;4.90;;
27424;SDS011;15244;49.088;11.886;2023-04-29T10:10:08;5.32;;;5.03;;
27424;SDS011;15244;49.088;11.886;2023-04-29T10:15:38;6.57;;;5.97;;
27424;SDS011;15244;49.088;11.886;2023-04-29T10:21:05;6.10;;;5.57;;
27424;SDS011;15244;49.088;11.886;2023-04-29T10:26:35;5.22;;;4.93;;
27424;SDS011;15244;49.088;11.886;2023-04-29T10:31:52;6.63;;;6.00;;
27424;SDS011;15244;49.088;11.886;2023-04-29T10:37:23;6.60;;;6.20;;
27424;SDS011;15244;49.088;11.886;2023-04-29T10:48:10;6.65;;;6.20;;
27424;SDS011;15244;49.088;11.886;2023-04-29T10:59:53;5.55;;;5.15;;
27424;SDS011;15244;49.088;11.886;2023-04-29T11:05:10;5.00;;;4.70;;
27424;SDS011;15244;49.088;11.886;2023-04-29T11:10:13;4.80;;;4.50;;
27424;SDS011;15244;49.088;11.886;2023-04-29T11:15:18;4.88;;;4.57;;
27424;SDS011;15244;49.088;11.886;2023-04-29T11:20:24;4.40;;;4.20;;
27424;SDS011;15244;49.088;11.886;2023-04-29T11:25:27;4.00;;;3.80;;
27424;SDS011;15244;49.088;11.886;2023-04-29T11:30:29;3.92;;;3.72;;
27424;SDS011;15244;49.088;11.886;2023-04-29T11:35:35;3.67;;;3.40;;
27424;SDS011;15244;49.088;11.886;2023-04-29T11:40:51;4.20;;;3.95;;
27424;SDS011;15244;49.088;11.886;2023-04-29T11:46:12;4.10;;;3.83;;
27424;SDS011;15244;49.088;11.886;2023-04-29T11:51:16;4.18;;;3.72;;
27424;SDS011;15244;49.088;11.886;2023-04-29T11:56:23;6.07;;;4.00;;
27424;SDS011;15244;49.088;11.886;2023-04-29T12:01:26;4.10;;;3.80;;
27424;SDS011;15244;49.088;11.886;2023-04-29T12:06:29;4.70;;;4.30;;
27424;SDS011;15244;49.088;11.886;2023-04-29T12:11:38;4.10;;;3.80;;
27424;SDS011;15244;49.088;11.886;2023-04-29T12:16:42;3.63;;;3.42;;
27424;SDS011;15244;49.088;11.886;2023-04-29T12:21:47;4.85;;;4.43;;
27424;SDS011;15244;49.088;11.886;2023-04-29T12:26:53;3.70;;;3.50;;
27424;SDS011;15244;49.088;11.886;2023-04-29T12:31:59;3.45;;;3.25;;
27424;SDS011;15244;49.088;11.886;2023-04-29T12:37:04;3.40;;;3.20;;
27424;SDS011;15244;49.088;11.886;2023-04-29T12:42:37;3.55;;;3.33;;
27424;SDS011;15244;49.088;11.886;2023-04-29T12:47:43;3.30;;;3.00;;
27424;SDS011;15244;49.088;11.886;2023-04-29T12:52:45;3.80;;;3.60;;
27424;SDS011;15244;49.088;11.886;2023-04-29T12:57:47;3.88;;;3.67;;
27424;SDS011;15244;49.088;11.886;2023-04-29T13:02:54;3.75;;;3.50;;
27424;SDS011;15244;49.088;11.886;2023-04-29T13:08:05;3.85;;;3.65;;
27424;SDS011;15244;49.088;11.886;2023-04-29T13:13:07;4.22;;;3.92;;
27424;SDS011;15244;49.088;11.886;2023-04-29T13:18:10;4.10;;;3.80;;
27424;SDS011;15244;49.088;11.886;2023-04-29T13:23:11;4.32;;;3.40;;
27424;SDS011;15244;49.088;11.886;2023-04-29T13:28:13;3.65;;;3.45;;
27424;SDS011;15244;49.088;11.886;2023-04-29T13:33:15;4.85;;;4.45;;
27424;SDS011;15244;49.088;11.886;2023-04-29T13:38:20;5.05;;;4.70;;
27424;SDS011;15244;49.088;11.886;2023-04-29T13:43:25;4.97;;;4.68;;
27424;SDS011;15244;49.088;11.886;2023-04-29T13:48:43;5.15;;;4.75;;
27424;SDS011;15244;49.088;11.886;2023-04-29T13:53:51;4.60;;;4.25;;
27424;SDS011;15244;49.088;11.886;2023-04-29T13:59:07;3.95;;;3.75;;
27424;SDS011;15244;49.088;11.886;2023-04-29T14:04:17;4.78;;;4.40;;
27424;SDS011;15244;49.088;11.886;2023-04-29T14:09:29;4.20;;;4.00;;
27424;SDS011;15244;49.088;11.886;2023-04-29T14:14:36;3.92;;;3.72;;
27424;SDS011;15244;49.088;11.886;2023-04-29T14:19:38;3.65;;;3.45;;
27424;SDS011;15244;49.088;11.886;2023-04-29T14:24:40;3.55;;;3.35;;
27424;SDS011;15244;49.088;11.886;2023-04-29T14:29:48;3.63;;;3.33;;
27424;SDS011;15244;49.088;11.886;2023-04-29T14:34:50;3.05;;;2.88;;
27424;SDS011;15244;49.088;11.886;2023-04-29T14:39:55;3.42;;;3.22;;
27424;SDS011;15244;49.088;11.886;2023-04-29T14:44:57;3.38;;;3.17;;
27424;SDS011;15244;49.088;11.886;2023-04-29T14:50:00;3.00;;;2.80;;
27424;SDS011;15244;49.088;11.886;2023-04-29T14:55:03;2.25;;;2.15;;
27424;SDS011;15244;49.088;11.886;2023-04-29T15:00:05;2.47;;;2.28;;
27424;SDS011;15244;49.088;11.886;2023-04-29T15:10:22;2.72;;;2.45;;
27424;SDS011;15244;49.088;11.886;2023-04-29T15:15:23;2.90;;;2.63;;
27424;SDS011;15244;49.088;11.886;2023-04-29T15:20:25;3.33;;;3.13;;
27424;SDS011;15244;49.088;11.886;2023-04-29T15:25:30;3.08;;;2.88;;
27424;SDS011;15244;49.088;11.886;2023-04-29T15:30:38;3.00;;;2.80;;
27424;SDS011;15244;49.088;11.886;2023-04-29T15:35:41;2.40;;;2.30;;
27424;SDS011;15244;49.088;11.886;2023-04-29T15:40:42;2.55;;;2.30;;
27424;SDS011;15244;49.088;11.886;2023-04-29T15:45:46;2.40;;;2.30;;
27424;SDS011;15244;49.088;11.886;2023-04-29T15:50:52;2.47;;;2.28;;
27424;SDS011;15244;49.088;11.886;2023-04-29T15:55:54;2.10;;;2.00;;
27424;SDS011;15244;49.088;11.886;2023-04-29T16:00:56;2.10;;;2.00;;
27424;SDS011;15244;49.088;11.886;2023-04-29T16:05:58;2.40;;;2.30;;
27424;SDS011;15244;49.088;11.886;2023-04-29T16:11:02;2.33;;;2.08;;
27424;SDS011;15244;49.088;11.886;2023-04-29T16:16:06;2.53;;;2.42;;
27424;SDS011;15244;49.088;11.886;2023-04-29T16:21:13;3.40;;;2.30;;
27424;SDS011;15244;49.088;11.886;2023-04-29T16:26:15;2.63;;;2.42;;
27424;SDS011;15244;49.088;11.886;2023-04-29T16:31:18;1.95;;;1.85;;
27424;SDS011;15244;49.088;11.886;2023-04-29T16:36:20;3.30;;;2.15;;
27424;SDS011;15244;49.088;11.886;2023-04-29T16:41:23;2.83;;;2.50;;
27424;SDS011;15244;49.088;11.886;2023-04-29T16:46:31;2.08;;;1.98;;
27424;SDS011;15244;49.088;11.886;2023-04-29T16:51:33;1.95;;;1.85;;
27424;SDS011;15244;49.088;11.886;2023-04-29T16:56:35;2.38;;;2.28;;
27424;SDS011;15244;49.088;11.886;2023-04-29T17:01:38;2.35;;;2.20;;
27424;SDS011;15244;49.088;11.886;2023-04-29T17:06:42;2.42;;;2.33;;
27424;SDS011;15244;49.088;11.886;2023-04-29T17:11:44;2.42;;;2.33;;
27424;SDS011;15244;49.088;11.886;2023-04-29T17:16:46;2.90;;;2.70;;
27424;SDS011;15244;49.088;11.886;2023-04-29T17:21:47;3.83;;;2.78;;
27424;SDS011;15244;49.088;11.886;2023-04-29T17:26:50;2.75;;;2.60;;
27424;SDS011;15244;49.088;11.886;2023-04-29T17:31:52;3.17;;;2.97;;
27424;SDS011;15244;49.088;11.886;2023-04-29T17:37:02;2.35;;;2.25;;
27424;SDS011;15244;49.088;11.886;2023-04-29T17:42:07;2.75;;;2.65;;
27424;SDS011;15244;49.088;11.886;2023-04-29T17:47:10;3.13;;;2.80;;
27424;SDS011;15244;49.088;11.886;2023-04-29T17:52:16;3.60;;;3.40;;
27424;SDS011;15244;49.088;11.886;2023-04-29T17:57:21;3.10;;;2.90;;
27424;SDS011;15244;49.088;11.886;2023-04-29T18:02:23;3.03;;;2.83;;
27424;SDS011;15244;49.088;11.886;2023-04-29T18:07:29;4.20;;;3.05;;
27424;SDS011;15244;49.088;11.886;2023-04-29T18:12:34;3.17;;;2.97;;
27424;SDS011;15244;49.088;11.886;2023-04-29T18:17:40;3.20;;;3.00;;
27424;SDS011;15244;49.088;11.886;2023-04-29T18:22:45;3.53;;;3.33;;
27424;SDS011;15244;49.088;11.886;2023-04-29T18:27:49;3.03;;;2.83;;
27424;SDS011;15244;49.088;11.886;2023-04-29T18:33:02;3.17;;;2.97;;
27424;SDS011;15244;49.088;11.886;2023-04-29T18:38:10;2.87;;;2.73;;
27424;SDS011;15244;49.088;11.886;2023-04-29T18:43:17;3.90;;;3.65;;
27424;SDS011;15244;49.088;11.886;2023-04-29T18:48:28;3.97;;;3.67;;
27424;SDS011;15244;49.088;11.886;2023-04-29T18:53:34;3.30;;;3.10;;
27424;SDS011;15244;49.088;11.886;2023-04-29T18:58:42;2.88;;;2.70;;
27424;SDS011;15244;49.088;11.886;2023-04-29T19:03:47;2.70;;;2.50;;
27424;SDS011;15244;49.088;11.886;2023-04-29T19:08:55;1.50;;;1.48;;
27424;SDS011;15244;49.088;11.886;2023-04-29T19:13:58;1.73;;;1.52;;
27424;SDS011;15244;49.088;11.886;2023-04-29T19:19:05;1.52;;;1.42;;
27424;SDS011;15244;49.088;11.886;2023-04-29T19:24:08;1.13;;;1.13;;
27424;SDS011;15244;49.088;11.886;2023-04-29T19:29:14;0.90;;;0.90;;
27424;SDS011;15244;49.088;11.886;2023-04-29T19:34:16;0.85;;;0.85;;
27424;SDS011;15244;49.088;11.886;2023-04-29T19:39:21;0.80;;;0.80;;
27424;SDS011;15244;49.088;11.886;2023-04-29T19:44:26;1.00;;;1.00;;
27424;SDS011;15244;49.088;11.886;2023-04-29T19:49:30;0.80;;;0.80;;
27424;SDS011;15244;49.088;11.886;2023-04-29T19:54:34;1.35;;;0.98;;
27424;SDS011;15244;49.088;11.886;2023-04-29T19:59:36;0.82;;;0.82;;
27424;SDS011;15244;49.088;11.886;2023-04-29T20:04:37;1.10;;;1.08;;
27424;SDS011;15244;49.088;11.886;2023-04-29T20:09:44;2.03;;;1.92;;
27424;SDS011;15244;49.088;11.886;2023-04-29T20:14:46;3.85;;;3.65;;
27424;SDS011;15244;49.088;11.886;2023-04-29T20:19:48;4.00;;;3.70;;
27424;SDS011;15244;49.088;11.886;2023-04-29T20:24:50;4.13;;;3.72;;
27424;SDS011;15244;49.088;11.886;2023-04-29T20:29:57;4.50;;;4.15;;
27424;SDS011;15244;49.088;11.886;2023-04-29T20:35:01;5.85;;;5.30;;
27424;SDS011;15244;49.088;11.886;2023-04-29T20:40:07;5.55;;;5.05;;
27424;SDS011;15244;49.088;11.886;2023-04-29T20:45:10;6.40;;;5.80;;
27424;SDS011;15244;49.088;11.886;2023-04-29T20:50:19;5.82;;;5.32;;
27424;SDS011;15244;49.088;11.886;2023-04-29T20:55:21;6.80;;;6.20;;
27424;SDS011;15244;49.088;11.886;2023-04-29T21:00:24;7.10;;;6.50;;
27424;SDS011;15244;49.088;11.886;2023-04-29T21:05:28;6.80;;;6.10;;
27424;SDS011;15244;49.088;11.886;2023-04-29T21:10:33;7.05;;;6.45;;
27424;SDS011;15244;49.088;11.886;2023-04-29T21:15:38;6.75;;;6.25;;
27424;SDS011;15244;49.088;11.886;2023-04-29T21:20:41;7.25;;;6.55;;
27424;SDS011;15244;49.088;11.886;2023-04-29T21:25:43;7.90;;;6.70;;
27424;SDS011;15244;49.088;11.886;2023-04-29T21:30:44;6.82;;;6.22;;
27424;SDS011;15244;49.088;11.886;2023-04-29T21:35:46;6.38;;;5.88;;
27424;SDS011;15244;49.088;11.886;2023-04-29T21:40:51;6.80;;;6.30;;
27424;SDS011;15244;49.088;11.886;2023-04-29T21:45:53;6.57;;;6.07;;
27424;SDS011;15244;49.088;11.886;2023-04-29T21:50:55;6.25;;;5.65;;
27424;SDS011;15244;49.088;11.886;2023-04-29T21:55:57;5.97;;;5.57;;
27424;SDS011;15244;49.088;11.886;2023-04-29T22:00:59;6.05;;;5.65;;
27424;SDS011;15244;49.088;11.886;2023-04-29T22:06:04;6.43;;;5.93;;
27424;SDS011;15244;49.088;11.886;2023-04-29T22:11:06;5.97;;;5.47;;
27424;SDS011;15244;49.088;11.886;2023-04-29T22:16:07;6.03;;;5.53;;
27424;SDS011;15244;49.088;11.886;2023-04-29T22:21:09;5.55;;;5.05;;
27424;SDS011;15244;49.088;11.886;2023-04-29T22:26:11;5.90;;;5.50;;
27424;SDS011;15244;49.088;11.886;2023-04-29T22:31:13;6.20;;;5.70;;
27424;SDS011;15244;49.088;11.886;2023-04-29T22:36:14;6.40;;;5.80;;
27424;SDS011;15244;49.088;11.886;2023-04-29T22:41:16;5.60;;;5.20;;
27424;SDS011;15244;49.088;11.886;2023-04-29T22:46:20;6.22;;;5.72;;
27424;SDS011;15244;49.088;11.886;2023-04-29T22:51:21;6.38;;;5.88;;
27424;SDS011;15244;49.088;11.886;2023-04-29T22:56:23;5.30;;;4.97;;
27424;SDS011;15244;49.088;11.886;2023-04-29T23:01:25;5.72;;;5.32;;
27424;SDS011;15244;49.088;11.886;2023-04-29T23:06:26;5.13;;;4.80;;
27424;SDS011;15244;49.088;11.886;2023-04-29T23:11:29;5.10;;;4.80;;
27424;SDS011;15244;49.088;11.886;2023-04-29T23:16:31;5.38;;;4.97;;
27424;SDS011;15244;49.088;11.886;2023-04-29T23:21:35;5.88;;;5.47;;
27424;SDS011;15244;49.088;11.886;2023-04-29T23:26:37;6.90;;;4.85;;
27424;SDS011;15244;49.088;11.886;2023-04-29T23:31:39;5.63;;;5.22;;
27424;SDS011;15244;49.088;11.886;2023-04-29T23:36:40;5.88;;;5.47;;
27424;SDS011;15244;49.088;11.886;2023-04-29T23:41:45;5.82;;;5.38;;
27424;SDS011;15244;49.088;11.886;2023-04-29T23:46:56;5.95;;;5.35;;
27424;SDS011;15244;49.088;11.886;2023-04-29T23:51:57;5.88;;;5.43;;
27424;SDS011;15244;49.088;11.886;2023-04-29T23:56:59;5.75;;;5.35;;
